createdAt,value
2023-12-17T00:04:38.278Z,13.05
2023-12-17T00:09:39.837Z,11.93
2023-12-17T00:14:43.083Z,11.52
2023-12-17T00:19:44.843Z,10.93
2023-12-17T00:24:46.522Z,11.43
2023-12-17T00:29:49.183Z,10.85
2023-12-17T00:34:50.820Z,9.82
2023-12-17T00:39:52.394Z,11.27
2023-12-17T00:44:54.063Z,10.73
2023-12-17T00:49:55.834Z,9.10
2023-12-17T00:54:57.470Z,8.30
2023-12-17T00:59:59.034Z,7.60
2023-12-17T01:05:00.621Z,8.23
2023-12-17T01:10:02.201Z,9.13
2023-12-17T01:15:04.249Z,9.02
2023-12-17T01:20:06.400Z,8.15
2023-12-17T01:25:08.460Z,9.30
2023-12-17T01:30:10.450Z,9.35
2023-12-17T01:35:12.855Z,8.90
2023-12-17T01:40:14.395Z,9.40
2023-12-17T01:45:16.066Z,8.80
2023-12-17T01:50:17.864Z,9.10
2023-12-17T01:55:19.533Z,8.63
2023-12-17T02:00:21.268Z,8.10
2023-12-17T02:05:22.892Z,7.53
2023-12-17T02:10:25.222Z,8.13
2023-12-17T02:15:27.140Z,7.85
2023-12-17T02:20:28.709Z,7.60
2023-12-17T02:25:30.353Z,7.80
2023-12-17T02:30:32.081Z,6.50
2023-12-17T02:35:33.702Z,6.90
2023-12-17T02:40:35.244Z,7.07
2023-12-17T02:45:36.781Z,8.32
2023-12-17T02:50:38.338Z,7.68
2023-12-17T02:55:39.867Z,6.75
2023-12-17T03:00:41.536Z,6.57
2023-12-17T03:05:43.155Z,6.30
2023-12-17T03:10:45.076Z,6.10
2023-12-17T03:15:46.959Z,6.47
2023-12-17T03:20:48.547Z,6.00
2023-12-17T03:25:50.169Z,4.75
2023-12-17T03:30:51.862Z,7.03
2023-12-17T03:35:53.691Z,5.63
2023-12-17T03:40:55.375Z,5.75
2023-12-17T03:45:57.023Z,6.15
2023-12-17T03:50:58.610Z,6.95
2023-12-17T03:56:00.212Z,7.38
2023-12-17T04:01:03.240Z,5.80
2023-12-17T04:06:08.524Z,5.55
2023-12-17T04:11:10.259Z,5.47
2023-12-17T04:16:11.786Z,4.80
2023-12-17T04:21:13.570Z,5.63
2023-12-17T04:26:15.243Z,4.72
2023-12-17T04:31:16.960Z,4.65
2023-12-17T04:36:18.662Z,5.57
2023-12-17T04:41:20.436Z,4.65
2023-12-17T04:46:22.245Z,10.32
2023-12-17T04:51:24.103Z,7.45
2023-12-17T04:56:25.801Z,6.75
2023-12-17T05:01:27.443Z,5.35
2023-12-17T05:06:29.022Z,6.45
2023-12-17T05:11:30.599Z,6.10
2023-12-17T05:16:32.166Z,6.38
2023-12-17T05:21:33.803Z,6.07
2023-12-17T05:26:35.398Z,6.68
2023-12-17T05:31:36.959Z,5.47
2023-12-17T05:36:38.550Z,6.05
2023-12-17T05:41:40.136Z,4.88
2023-12-17T05:46:41.790Z,4.45
2023-12-17T05:51:44.522Z,4.20
2023-12-17T05:56:46.117Z,4.80
2023-12-17T06:01:47.689Z,4.68
2023-12-17T06:06:49.532Z,4.60
2023-12-17T06:11:51.338Z,4.75
2023-12-17T06:16:53.010Z,4.00
2023-12-17T06:21:54.555Z,4.43
2023-12-17T06:26:56.703Z,4.90
2023-12-17T06:31:58.282Z,4.18
2023-12-17T06:36:59.863Z,4.22
2023-12-17T06:42:01.443Z,5.65
2023-12-17T06:47:11.078Z,7.90
2023-12-17T06:52:19.873Z,4.35
2023-12-17T06:57:21.621Z,4.40
2023-12-17T07:02:23.204Z,4.75
2023-12-17T07:07:26.180Z,4.97
2023-12-17T07:12:27.914Z,3.85
2023-12-17T07:17:29.549Z,4.75
2023-12-17T07:22:31.137Z,4.22
2023-12-17T07:27:32.701Z,3.78
2023-12-17T07:32:34.399Z,5.00
2023-12-17T07:37:35.984Z,3.50
2023-12-17T07:42:37.618Z,3.10
2023-12-17T07:47:41.471Z,4.38
2023-12-17T07:52:44.507Z,3.38
2023-12-17T07:57:46.049Z,3.15
2023-12-17T08:02:47.635Z,4.00
2023-12-17T08:07:49.220Z,4.10
2023-12-17T08:12:50.827Z,3.83
2023-12-17T08:17:52.467Z,4.43
2023-12-17T08:22:54.061Z,5.63
2023-12-17T08:27:55.644Z,4.72
2023-12-17T08:32:57.251Z,4.78
2023-12-17T08:38:04.663Z,4.60
2023-12-17T08:43:09.761Z,5.53
2023-12-17T08:48:11.385Z,5.57
2023-12-17T08:53:13.317Z,6.97
2023-12-17T08:58:14.911Z,6.72
2023-12-17T09:03:16.616Z,6.13
2023-12-17T09:08:18.418Z,6.68
2023-12-17T09:13:20.141Z,7.05
2023-12-17T09:18:22.009Z,7.40
2023-12-17T09:23:23.914Z,6.97
2023-12-17T09:28:25.572Z,7.38
2023-12-17T09:33:27.246Z,8.82
2023-12-17T09:38:28.933Z,7.32
2023-12-17T09:43:30.576Z,7.60
2023-12-17T09:48:32.648Z,7.18
2023-12-17T09:53:35.412Z,6.75
2023-12-17T09:58:36.999Z,7.32
2023-12-17T10:03:38.734Z,13.30
2023-12-17T10:08:40.379Z,14.82
2023-12-17T10:13:41.985Z,9.07
2023-12-17T10:18:48.551Z,8.27
2023-12-17T10:23:51.330Z,8.05
2023-12-17T10:28:53.146Z,6.97
2023-12-17T10:34:16.635Z,8.40
2023-12-17T10:39:22.159Z,6.90
2023-12-17T10:44:24.652Z,7.00
2023-12-17T10:49:26.294Z,7.20
2023-12-17T10:54:31.410Z,6.53
2023-12-17T10:59:40.467Z,8.40
2023-12-17T11:04:46.666Z,7.88
2023-12-17T11:09:49.141Z,7.63
2023-12-17T11:14:50.702Z,7.40
2023-12-17T11:19:55.264Z,9.77
2023-12-17T11:24:58.297Z,9.63
2023-12-17T11:29:59.895Z,10.32
2023-12-17T11:35:02.753Z,8.57
2023-12-17T11:40:04.843Z,10.73
2023-12-17T11:45:07.375Z,10.18
2023-12-17T11:50:09.494Z,9.35
2023-12-17T11:55:11.036Z,9.23
2023-12-17T12:00:16.244Z,8.27
2023-12-17T12:05:19.330Z,8.15
2023-12-17T12:10:23.395Z,8.27
2023-12-17T12:15:25.056Z,8.50
2023-12-17T12:20:38.860Z,9.07
2023-12-17T12:25:40.725Z,7.82
2023-12-17T12:30:42.608Z,8.75
2023-12-17T12:35:45.726Z,8.88
2023-12-17T12:40:47.654Z,8.23
2023-12-17T12:45:51.583Z,8.98
2023-12-17T12:50:53.728Z,8.65
2023-12-17T12:55:55.429Z,8.88
2023-12-17T13:00:56.970Z,8.65
2023-12-17T13:05:58.779Z,8.27
2023-12-17T13:11:00.545Z,8.07
2023-12-17T13:16:02.198Z,9.18
2023-12-17T13:21:04.000Z,8.98
2023-12-17T13:26:10.782Z,9.00
2023-12-17T13:31:18.820Z,7.90
2023-12-17T13:36:21.624Z,7.57
2023-12-17T13:41:23.993Z,7.78
2023-12-17T13:46:26.077Z,8.07
2023-12-17T13:51:27.858Z,9.43
2023-12-17T13:56:36.291Z,8.07
2023-12-17T14:01:42.704Z,9.68
2023-12-17T14:06:44.397Z,9.68
2023-12-17T14:11:46.020Z,9.50
2023-12-17T14:16:47.622Z,9.65
2023-12-17T14:21:50.039Z,8.43
2023-12-17T14:26:53.884Z,17.60
2023-12-17T14:32:01.686Z,12.35
2023-12-17T14:37:04.543Z,14.73
2023-12-17T14:42:06.215Z,13.30
2023-12-17T14:47:07.842Z,14.13
2023-12-17T14:52:09.374Z,11.60
2023-12-17T14:57:10.961Z,10.45
2023-12-17T15:02:14.907Z,10.73
2023-12-17T15:07:17.878Z,10.30
2023-12-17T15:12:19.542Z,14.20
2023-12-17T15:17:21.144Z,10.73
2023-12-17T15:22:22.736Z,11.65
2023-12-17T15:27:25.470Z,10.45
2023-12-17T15:32:27.211Z,14.85
2023-12-17T15:37:28.832Z,14.52
2023-12-17T15:42:30.445Z,15.98
2023-12-17T15:47:36.876Z,14.07
2023-12-17T15:52:38.558Z,13.77
2023-12-17T15:57:40.175Z,12.82
2023-12-17T16:02:42.137Z,11.75
2023-12-17T16:07:55.125Z,16.35
2023-12-17T16:12:56.726Z,13.45
2023-12-17T16:17:58.502Z,13.60
2023-12-17T16:23:00.107Z,13.80
2023-12-17T16:28:01.636Z,11.00
2023-12-17T16:33:04.349Z,14.20
2023-12-17T16:38:05.968Z,15.23
2023-12-17T16:43:07.546Z,14.50
2023-12-17T16:48:09.152Z,14.85
2023-12-17T16:53:10.747Z,17.10
2023-12-17T16:58:12.364Z,12.98
2023-12-17T17:03:14.110Z,11.98
2023-12-17T17:08:15.855Z,10.75
2023-12-17T17:13:17.478Z,11.50
2023-12-17T17:18:19.126Z,9.75
2023-12-17T17:23:20.806Z,10.25
2023-12-17T17:28:22.365Z,10.55
2023-12-17T17:33:24.142Z,10.00
2023-12-17T17:38:25.809Z,9.60
2023-12-17T17:43:27.422Z,10.57
2023-12-17T17:48:31.960Z,11.23
2023-12-17T17:53:35.261Z,10.13
2023-12-17T17:58:36.799Z,11.18
2023-12-17T18:03:38.405Z,10.27
2023-12-17T18:08:40.073Z,11.27
2023-12-17T18:13:41.662Z,10.82
2023-12-17T18:18:43.352Z,11.82
2023-12-17T18:23:44.957Z,12.32
2023-12-17T18:28:46.562Z,12.10
2023-12-17T18:33:48.296Z,11.63
2023-12-17T18:38:50.177Z,10.80
2023-12-17T18:43:51.791Z,11.18
2023-12-17T18:48:53.520Z,11.10
2023-12-17T18:53:56.192Z,11.07
2023-12-17T18:58:57.854Z,10.75
2023-12-17T19:03:59.536Z,10.73
2023-12-17T19:09:04.305Z,10.20
2023-12-17T19:14:06.094Z,10.68
2023-12-17T19:19:07.766Z,11.13
2023-12-17T19:24:10.643Z,11.43
2023-12-17T19:29:12.244Z,12.77
2023-12-17T19:34:14.259Z,11.63
2023-12-17T19:39:16.006Z,11.48
2023-12-17T19:44:17.606Z,12.13
2023-12-17T19:49:19.215Z,11.73
2023-12-17T19:54:20.860Z,12.75
2023-12-17T19:59:22.424Z,12.35
2023-12-17T20:04:24.004Z,13.00
2023-12-17T20:09:25.588Z,12.02
2023-12-17T20:14:27.168Z,13.18
2023-12-17T20:19:28.823Z,12.23
2023-12-17T20:24:30.620Z,13.48
2023-12-17T20:29:32.235Z,12.57
2023-12-17T20:34:33.998Z,14.40
2023-12-17T20:39:39.342Z,14.20
2023-12-17T20:44:41.336Z,18.50
2023-12-17T20:49:42.949Z,14.32
2023-12-17T20:54:50.403Z,13.20
2023-12-17T20:59:57.159Z,15.23
2023-12-17T21:04:59.319Z,15.68
2023-12-17T21:10:00.948Z,12.52
2023-12-17T21:15:02.569Z,10.90
2023-12-17T21:20:04.475Z,15.10
2023-12-17T21:25:06.500Z,14.00
2023-12-17T21:30:08.702Z,16.15
2023-12-17T21:35:10.323Z,13.25
2023-12-17T21:40:12.385Z,12.30
2023-12-17T21:45:14.113Z,13.05
2023-12-17T21:50:15.744Z,12.52
2023-12-17T21:55:17.468Z,12.25
2023-12-17T22:00:19.958Z,13.05
2023-12-17T22:05:22.486Z,11.68
2023-12-17T22:10:24.657Z,14.05
2023-12-17T22:15:26.422Z,13.82
2023-12-17T22:20:28.062Z,12.38
2023-12-17T22:25:30.555Z,14.07
2023-12-17T22:30:32.803Z,13.80
2023-12-17T22:35:34.426Z,14.40
2023-12-17T22:40:35.983Z,14.65
2023-12-17T22:45:37.838Z,17.77
2023-12-17T22:50:39.525Z,14.55
2023-12-17T22:55:41.142Z,13.45
2023-12-17T23:00:44.281Z,15.73
2023-12-17T23:05:45.877Z,17.85
2023-12-17T23:10:47.438Z,17.42
2023-12-17T23:15:49.760Z,16.73
2023-12-17T23:20:51.460Z,23.55
2023-12-17T23:25:53.543Z,17.08
2023-12-17T23:30:55.191Z,14.98
2023-12-17T23:35:56.806Z,20.55
2023-12-17T23:40:58.366Z,16.38
2023-12-17T23:46:00.009Z,16.48
2023-12-17T23:51:01.682Z,18.63
2023-12-17T23:56:03.486Z,14.23
